Time;durP1;ratioP1;P1;durP2;ratioP2;P2;SDS_P1;SDS_P2;PMS_P1;PMS_P2;Temp;Humidity;BMP_temperature;BMP_pressure;BME280_temperature;BME280_humidity;BME280_pressure;Samples;Min_cycle;Max_cycle;Signal;HPM_P1;HPM_P2
2023/05/17 00:00:08;;;;;;;;;;;10.90;66.80;;;;;;5121038;28;20236;-65
2023/05/17 00:02:34;;;;;;;;;;;10.80;65.60;;;;;;5121338;28;19990;-65
2023/05/17 00:05:00;;;;;;;;;;;10.80;63.10;;;;;;5121289;28;19912;-65
2023/05/17 00:07:25;;;;;;;;;;;10.70;63.60;;;;;;5121142;28;20268;-65
2023/05/17 00:09:51;;;;;;;;;;;10.70;64.60;;;;;;5121186;28;19916;-65
2023/05/17 00:12:17;;;;;;;;;;;10.70;70.50;;;;;;5121453;28;19914;-65
2023/05/17 00:14:42;;;;;;;;;;;10.60;66.30;;;;;;5120737;28;19915;-65
2023/05/17 00:17:08;;;;;;;;;;;10.60;62.00;;;;;;5120672;28;20085;-65
2023/05/17 00:19:33;;;;;;;;;;;10.60;60.70;;;;;;5120468;28;19908;-65
2023/05/17 00:22:01;;;;;;;;;;;10.60;63.60;;;;;;5120103;28;20222;-65
2023/05/17 00:24:27;;;;;;;;;;;10.60;61.10;;;;;;5121065;28;19912;-65
2023/05/17 00:26:52;;;;;;;;;;;10.50;64.20;;;;;;5120490;28;19908;-65
2023/05/17 00:29:18;;;;;;;;;;;10.50;61.80;;;;;;5120874;28;20025;-66
2023/05/17 00:31:43;;;;;;;;;;;10.50;62.20;;;;;;5120904;28;19947;-65
2023/05/17 00:34:09;;;;;;;;;;;10.40;62.50;;;;;;5121090;28;20044;-65
2023/05/17 00:36:35;;;;;;;;;;;10.40;61.30;;;;;;5120734;28;19908;-65
2023/05/17 00:39:00;;;;;;;;;;;10.40;61.40;;;;;;5120857;28;20309;-65
2023/05/17 00:41:26;;;;;;;;;;;10.30;60.90;;;;;;5120879;28;19908;-65
2023/05/17 00:43:51;;;;;;;;;;;10.30;61.40;;;;;;5120472;28;19908;-65
2023/05/17 00:46:17;;;;;;;;;;;10.30;60.50;;;;;;5120508;28;19919;-65
2023/05/17 00:48:43;;;;;;;;;;;10.20;60.90;;;;;;5120378;28;20003;-65
2023/05/17 00:51:09;;;;;;;;;;;10.20;63.60;;;;;;5120228;28;20297;-65
2023/05/17 00:53:36;;;;;;;;;;;10.20;73.60;;;;;;5120429;28;20016;-65
2023/05/17 00:56:01;;;;;;;;;;;10.10;63.80;;;;;;5120061;28;20390;-65
2023/05/17 00:58:27;;;;;;;;;;;10.10;68.80;;;;;;5120495;28;19912;-65
2023/05/17 01:00:53;;;;;;;;;;;10.10;66.70;;;;;;5120166;28;20270;-66
2023/05/17 01:03:21;;;;;;;;;;;10.10;62.60;;;;;;5120320;28;20004;-65
2023/05/17 01:05:47;;;;;;;;;;;10.10;62.90;;;;;;5119606;28;19912;-65
2023/05/17 01:08:13;;;;;;;;;;;10.00;70.30;;;;;;5120027;28;19935;-65
2023/05/17 01:10:41;;;;;;;;;;;10.00;64.20;;;;;;5119881;28;19929;-66
2023/05/17 01:13:13;;;;;;;;;;;9.90;70.80;;;;;;5119749;28;19994;-65
2023/05/17 01:15:44;;;;;;;;;;;9.90;78.10;;;;;;5119630;28;19923;-65
2023/05/17 01:18:10;;;;;;;;;;;9.80;67.60;;;;;;5119666;28;19912;-65
2023/05/17 01:20:37;;;;;;;;;;;9.80;67.60;;;;;;5120066;28;19915;-65
2023/05/17 01:23:06;;;;;;;;;;;9.80;75.80;;;;;;5119827;28;19991;-65
2023/05/17 01:25:41;;;;;;;;;;;9.80;69.50;;;;;;5119641;28;19911;-65
2023/05/17 01:28:07;;;;;;;;;;;9.70;65.80;;;;;;5119181;28;20380;-65
2023/05/17 01:30:33;;;;;;;;;;;9.70;71.00;;;;;;5119328;28;19908;-65
2023/05/17 01:32:59;;;;;;;;;;;9.70;66.30;;;;;;5119260;28;19919;-65
2023/05/17 01:35:25;;;;;;;;;;;9.70;68.50;;;;;;5119343;28;19912;-65
2023/05/17 01:37:51;;;;;;;;;;;9.70;68.50;;;;;;5119494;28;19908;-65
2023/05/17 01:40:18;;;;;;;;;;;9.60;69.10;;;;;;5118999;28;19939;-65
2023/05/17 01:42:43;;;;;;;;;;;9.60;67.30;;;;;;5119072;28;20349;-65
2023/05/17 01:45:28;;;;;;;;;;;9.60;66.40;;;;;;5119246;28;19911;-65
2023/05/17 01:47:53;;;;;;;;;;;9.60;67.50;;;;;;5119270;28;19908;-66
2023/05/17 01:50:22;;;;;;;;;;;9.50;65.90;;;;;;5119050;28;19950;-65
2023/05/17 01:52:51;;;;;;;;;;;9.50;65.00;;;;;;5119181;28;19954;-65
2023/05/17 01:55:42;;;;;;;;;;;9.50;67.70;;;;;;5119118;28;19949;-65
2023/05/17 01:58:09;;;;;;;;;;;9.50;64.70;;;;;;5119100;28;20009;-65
2023/05/17 02:00:35;;;;;;;;;;;9.40;65.10;;;;;;5118934;28;19958;-65
2023/05/17 02:03:00;;;;;;;;;;;9.40;66.10;;;;;;5119263;28;19981;-65
2023/05/17 02:05:26;;;;;;;;;;;9.30;64.90;;;;;;5118808;28;20294;-65
2023/05/17 02:07:51;;;;;;;;;;;9.30;65.30;;;;;;5118694;28;20378;-65
2023/05/17 02:10:17;;;;;;;;;;;9.30;69.40;;;;;;5119110;28;19915;-65
2023/05/17 02:12:43;;;;;;;;;;;9.30;69.00;;;;;;5119030;28;19907;-65
2023/05/17 02:15:10;;;;;;;;;;;9.20;71.60;;;;;;5118562;28;19957;-65
2023/05/17 02:17:38;;;;;;;;;;;9.30;66.70;;;;;;5118506;28;19960;-65
2023/05/17 02:20:04;;;;;;;;;;;9.20;67.30;;;;;;5118380;28;19908;-65
2023/05/17 02:22:30;;;;;;;;;;;9.20;66.70;;;;;;5118513;28;19908;-65
2023/05/17 02:24:55;;;;;;;;;;;9.20;69.00;;;;;;5118892;28;20252;-65
2023/05/17 02:27:21;;;;;;;;;;;9.20;72.80;;;;;;5118474;28;19908;-65
2023/05/17 02:29:47;;;;;;;;;;;9.10;70.80;;;;;;5118622;28;19915;-65
2023/05/17 02:32:12;;;;;;;;;;;9.10;80.60;;;;;;5118800;28;19908;-65
2023/05/17 02:34:38;;;;;;;;;;;9.10;77.20;;;;;;5118353;28;19955;-65
2023/05/17 02:37:04;;;;;;;;;;;9.10;71.20;;;;;;5118836;28;20331;-65
2023/05/17 02:39:31;;;;;;;;;;;9.00;71.70;;;;;;5118584;28;20010;-65
2023/05/17 02:41:57;;;;;;;;;;;9.00;76.10;;;;;;5118055;28;19930;-65
2023/05/17 02:44:22;;;;;;;;;;;9.00;74.90;;;;;;5118433;28;19911;-65
2023/05/17 02:46:48;;;;;;;;;;;9.00;88.50;;;;;;5118758;28;20381;-65
2023/05/17 02:49:13;;;;;;;;;;;9.00;77.70;;;;;;5118255;28;19908;-65
2023/05/17 02:51:39;;;;;;;;;;;9.00;76.90;;;;;;5118705;28;19961;-65
2023/05/17 02:54:05;;;;;;;;;;;9.00;76.40;;;;;;5118310;28;19908;-66
2023/05/17 02:56:31;;;;;;;;;;;9.00;84.70;;;;;;5118601;28;19914;-65
2023/05/17 02:59:00;;;;;;;;;;;9.00;83.40;;;;;;5118346;28;20028;-65
2023/05/17 03:01:26;;;;;;;;;;;9.00;85.80;;;;;;5117976;28;19966;-65
2023/05/17 03:03:51;;;;;;;;;;;9.00;79.90;;;;;;5118329;28;19907;-65
2023/05/17 03:06:17;;;;;;;;;;;9.00;85.40;;;;;;5117809;28;19971;-65
2023/05/17 03:08:43;;;;;;;;;;;8.90;89.20;;;;;;5118250;28;19930;-65
2023/05/17 03:11:08;;;;;;;;;;;8.90;79.30;;;;;;5118200;28;19918;-65
2023/05/17 03:13:34;;;;;;;;;;;8.90;78.60;;;;;;5118467;28;19994;-66
2023/05/17 03:16:00;;;;;;;;;;;8.90;75.80;;;;;;5117861;28;20015;-65
2023/05/17 03:18:25;;;;;;;;;;;8.80;74.40;;;;;;5117992;28;19908;-65
2023/05/17 03:20:51;;;;;;;;;;;8.80;87.20;;;;;;5118006;28;19933;-65
2023/05/17 03:23:17;;;;;;;;;;;8.80;85.50;;;;;;5117866;28;20371;-66
2023/05/17 03:25:42;;;;;;;;;;;8.80;78.80;;;;;;5118134;28;19912;-65
2023/05/17 03:28:08;;;;;;;;;;;8.80;79.20;;;;;;5118210;28;19946;-65
2023/05/17 03:30:34;;;;;;;;;;;8.80;83.30;;;;;;5118486;28;19954;-65
2023/05/17 03:32:59;;;;;;;;;;;8.80;78.20;;;;;;5117949;28;19919;-65
2023/05/17 03:35:25;;;;;;;;;;;8.80;78.20;;;;;;5117958;28;19967;-65
2023/05/17 03:37:50;;;;;;;;;;;8.80;79.10;;;;;;5117896;28;19907;-65
2023/05/17 03:40:16;;;;;;;;;;;8.70;78.30;;;;;;5117945;28;19929;-65
2023/05/17 03:42:42;;;;;;;;;;;8.70;83.60;;;;;;5117987;28;19954;-65
2023/05/17 03:45:07;;;;;;;;;;;8.70;79.20;;;;;;5117722;28;20002;-65
2023/05/17 03:47:33;;;;;;;;;;;8.70;88.40;;;;;;5117733;28;19915;-65
2023/05/17 03:49:59;;;;;;;;;;;8.70;82.90;;;;;;5117743;28;19919;-65
2023/05/17 03:52:24;;;;;;;;;;;8.70;88.50;;;;;;5117866;28;19915;-65
2023/05/17 03:54:50;;;;;;;;;;;8.60;90.30;;;;;;5120711;28;19923;-65
2023/05/17 03:57:16;;;;;;;;;;;8.70;91.30;;;;;;5121763;28;19907;-65
2023/05/17 03:59:41;;;;;;;;;;;8.60;92.80;;;;;;5121145;28;19918;-65
2023/05/17 04:02:07;;;;;;;;;;;8.60;86.80;;;;;;5121801;28;20002;-65
2023/05/17 04:04:33;;;;;;;;;;;8.60;84.90;;;;;;5121542;28;19911;-65
2023/05/17 04:06:58;;;;;;;;;;;8.60;81.70;;;;;;5102575;28;20366;-65
2023/05/17 04:09:24;;;;;;;;;;;8.50;83.00;;;;;;5121183;28;19914;-65
2023/05/17 04:11:50;;;;;;;;;;;8.50;84.00;;;;;;5120736;28;20393;-65
2023/05/17 04:14:16;;;;;;;;;;;8.50;85.40;;;;;;5120756;28;19908;-65
2023/05/17 04:16:42;;;;;;;;;;;8.50;85.50;;;;;;5103210;28;19947;-65
2023/05/17 04:19:08;;;;;;;;;;;8.50;90.80;;;;;;5121225;28;19908;-65
2023/05/17 04:21:33;;;;;;;;;;;8.50;86.70;;;;;;5120726;28;19955;-65
2023/05/17 04:23:59;;;;;;;;;;;8.40;86.60;;;;;;5121061;28;19990;-65
2023/05/17 04:26:25;;;;;;;;;;;8.40;85.30;;;;;;5121059;28;19974;-65
2023/05/17 04:28:51;;;;;;;;;;;8.40;93.00;;;;;;5120425;28;19908;-65
2023/05/17 04:31:17;;;;;;;;;;;8.40;92.90;;;;;;5120603;28;19908;-65
2023/05/17 04:33:42;;;;;;;;;;;8.40;87.50;;;;;;5120626;28;19947;-65
2023/05/17 04:36:08;;;;;;;;;;;8.40;90.40;;;;;;5120687;28;19912;-65
2023/05/17 04:38:33;;;;;;;;;;;8.40;93.30;;;;;;5120571;28;19912;-65
2023/05/17 04:41:03;;;;;;;;;;;8.40;90.80;;;;;;5120752;28;19946;-65
2023/05/17 04:43:29;;;;;;;;;;;8.30;84.40;;;;;;5120806;28;19932;-65
2023/05/17 04:45:55;;;;;;;;;;;8.30;90.40;;;;;;5120127;28;20437;-65
2023/05/17 04:48:21;;;;;;;;;;;8.30;94.30;;;;;;5120293;28;19996;-65
2023/05/17 04:50:47;;;;;;;;;;;8.30;94.60;;;;;;5120108;28;19912;-65
2023/05/17 04:53:14;;;;;;;;;;;8.40;90.10;;;;;;5120726;28;19908;-65
2023/05/17 04:55:40;;;;;;;;;;;8.40;90.00;;;;;;5120224;28;19935;-65
2023/05/17 04:58:05;;;;;;;;;;;8.50;97.70;;;;;;5120193;28;19909;-65
2023/05/17 05:00:31;;;;;;;;;;;8.50;95.50;;;;;;5120179;28;19986;-65
2023/05/17 05:02:57;;;;;;;;;;;8.50;91.60;;;;;;5120297;28;19942;-65
2023/05/17 05:05:23;;;;;;;;;;;8.50;94.50;;;;;;5119611;28;19912;-65
2023/05/17 05:07:49;;;;;;;;;;;8.50;96.50;;;;;;5120121;28;19908;-65
2023/05/17 05:10:15;;;;;;;;;;;8.60;97.30;;;;;;5119989;28;19908;-65
2023/05/17 05:12:41;;;;;;;;;;;8.60;99.30;;;;;;5119635;28;19908;-65
2023/05/17 05:15:07;;;;;;;;;;;8.60;96.60;;;;;;5119616;28;19919;-65
2023/05/17 05:17:33;;;;;;;;;;;8.70;98.00;;;;;;5119841;28;19968;-65
2023/05/17 05:19:58;;;;;;;;;;;8.70;98.00;;;;;;5119636;28;19911;-65
2023/05/17 05:22:24;;;;;;;;;;;8.80;95.70;;;;;;5119649;28;19934;-66
2023/05/17 05:24:50;;;;;;;;;;;8.80;96.80;;;;;;5119327;28;20363;-65
2023/05/17 05:27:16;;;;;;;;;;;8.80;96.60;;;;;;5119791;28;19908;-65
2023/05/17 05:29:42;;;;;;;;;;;8.80;94.20;;;;;;5119717;28;19953;-65
2023/05/17 05:32:08;;;;;;;;;;;8.90;99.20;;;;;;5119477;28;19908;-65
2023/05/17 05:34:33;;;;;;;;;;;8.90;95.40;;;;;;5119821;28;19914;-65
2023/05/17 05:36:59;;;;;;;;;;;8.90;96.90;;;;;;5118821;28;19914;-65
2023/05/17 05:39:26;;;;;;;;;;;9.00;99.90;;;;;;5118893;28;19908;-65
2023/05/17 05:41:52;;;;;;;;;;;9.00;96.50;;;;;;5118932;28;19911;-65
2023/05/17 05:44:18;;;;;;;;;;;9.10;97.20;;;;;;5119397;28;19908;-65
2023/05/17 05:46:43;;;;;;;;;;;9.20;99.90;;;;;;5119030;28;19947;-65
2023/05/17 05:49:09;;;;;;;;;;;9.20;99.00;;;;;;5119009;28;19908;-65
2023/05/17 05:51:35;;;;;;;;;;;9.20;98.00;;;;;;5119029;28;19908;-65
2023/05/17 05:54:01;;;;;;;;;;;9.30;95.90;;;;;;5119162;28;19907;-66
2023/05/17 05:56:26;;;;;;;;;;;9.30;97.10;;;;;;5119352;28;19914;-65
2023/05/17 05:58:53;;;;;;;;;;;9.40;99.90;;;;;;5118819;28;19990;-65
2023/05/17 06:01:20;;;;;;;;;;;9.50;99.90;;;;;;5118922;28;19919;-65
2023/05/17 06:03:45;;;;;;;;;;;9.50;99.00;;;;;;5118739;28;19908;-65
2023/05/17 06:06:11;;;;;;;;;;;9.60;99.80;;;;;;5119245;28;20013;-65
2023/05/17 06:08:36;;;;;;;;;;;9.70;99.90;;;;;;5118937;28;20298;-65
2023/05/17 06:11:02;;;;;;;;;;;9.70;98.70;;;;;;5118729;28;19947;-65
2023/05/17 06:13:28;;;;;;;;;;;9.80;99.90;;;;;;5118609;28;19915;-65
2023/05/17 06:15:54;;;;;;;;;;;9.80;99.90;;;;;;5117611;28;19958;-65
2023/05/17 06:18:20;;;;;;;;;;;9.90;97.30;;;;;;5118525;28;19908;-66
2023/05/17 06:20:45;;;;;;;;;;;10.00;99.90;;;;;;5118862;28;19915;-65
2023/05/17 06:23:11;;;;;;;;;;;10.00;99.90;;;;;;5118968;28;20013;-65
2023/05/17 06:25:37;;;;;;;;;;;10.10;99.80;;;;;;5118550;28;19912;-66
2023/05/17 06:28:03;;;;;;;;;;;10.20;97.70;;;;;;5118165;28;19908;-65
2023/05/17 06:30:29;;;;;;;;;;;10.20;99.20;;;;;;5118771;28;19919;-65
2023/05/17 06:32:55;;;;;;;;;;;10.30;99.90;;;;;;5118565;28;20379;-65
2023/05/17 06:35:20;;;;;;;;;;;10.30;99.60;;;;;;5118161;28;19908;-65
2023/05/17 06:37:46;;;;;;;;;;;10.40;99.90;;;;;;5118429;28;20332;-66
2023/05/17 06:40:11;;;;;;;;;;;10.50;99.90;;;;;;5118602;28;19929;-65
2023/05/17 06:42:37;;;;;;;;;;;10.60;99.90;;;;;;5118263;28;19930;-66
2023/05/17 06:45:03;;;;;;;;;;;10.70;99.90;;;;;;5118457;28;19918;-65
2023/05/17 06:47:29;;;;;;;;;;;10.70;99.90;;;;;;5118545;28;20248;-65
2023/05/17 06:49:54;;;;;;;;;;;10.80;99.90;;;;;;5118334;28;20001;-65
2023/05/17 06:52:20;;;;;;;;;;;10.90;99.90;;;;;;5118344;28;20003;-65
2023/05/17 06:54:46;;;;;;;;;;;11.00;99.90;;;;;;5118497;28;19908;-65
2023/05/17 06:57:11;;;;;;;;;;;11.10;99.90;;;;;;5117935;28;20386;-65
2023/05/17 06:59:37;;;;;;;;;;;11.10;99.90;;;;;;5117844;28;19933;-65
2023/05/17 07:02:03;;;;;;;;;;;11.30;99.90;;;;;;5118589;28;19956;-65
2023/05/17 07:04:28;;;;;;;;;;;11.30;99.90;;;;;;5118360;28;20323;-65
2023/05/17 07:06:54;;;;;;;;;;;11.40;99.90;;;;;;5118426;28;19943;-65
2023/05/17 07:09:20;;;;;;;;;;;11.60;99.90;;;;;;5118509;28;20261;-65
2023/05/17 07:11:46;;;;;;;;;;;11.70;99.90;;;;;;5118218;28;20274;-66
2023/05/17 07:14:11;;;;;;;;;;;11.70;99.90;;;;;;5117860;28;19907;-65
2023/05/17 07:16:37;;;;;;;;;;;11.80;99.90;;;;;;5118385;28;19912;-66
2023/05/17 07:19:03;;;;;;;;;;;11.90;99.90;;;;;;5118442;28;19908;-65
2023/05/17 07:21:28;;;;;;;;;;;12.00;99.90;;;;;;5117896;28;19911;-65
2023/05/17 07:23:54;;;;;;;;;;;12.20;99.90;;;;;;5117992;28;19915;-66
2023/05/17 07:26:20;;;;;;;;;;;12.30;99.90;;;;;;5117946;28;19961;-66
2023/05/17 07:28:46;;;;;;;;;;;12.40;99.90;;;;;;5121478;28;19911;-65
2023/05/17 07:31:11;;;;;;;;;;;12.50;99.90;;;;;;5121745;28;19975;-65
2023/05/17 07:33:37;;;;;;;;;;;12.60;99.90;;;;;;5122147;28;19908;-66
2023/05/17 07:36:03;;;;;;;;;;;12.70;99.90;;;;;;5121631;28;19943;-65
2023/05/17 07:38:29;;;;;;;;;;;12.80;99.90;;;;;;5121649;28;19937;-66
2023/05/17 07:40:55;;;;;;;;;;;12.90;99.90;;;;;;5121415;28;19912;-65
2023/05/17 07:43:20;;;;;;;;;;;13.00;99.90;;;;;;5121694;28;19937;-66
2023/05/17 07:45:46;;;;;;;;;;;13.10;99.90;;;;;;5121593;28;19965;-65
2023/05/17 07:48:12;;;;;;;;;;;13.20;99.90;;;;;;5121351;28;20286;-66
2023/05/17 07:50:37;;;;;;;;;;;13.30;99.90;;;;;;5121596;28;19908;-66
2023/05/17 07:53:03;;;;;;;;;;;13.40;99.90;;;;;;5121262;28;19907;-65
2023/05/17 07:55:29;;;;;;;;;;;13.50;99.10;;;;;;5121415;28;19918;-66
2023/05/17 07:57:54;;;;;;;;;;;13.50;98.20;;;;;;5121440;28;19912;-66
2023/05/17 08:00:21;;;;;;;;;;;13.60;97.70;;;;;;5121435;28;19923;-65
2023/05/17 08:02:47;;;;;;;;;;;13.70;95.50;;;;;;5121089;28;19908;-65
2023/05/17 08:05:13;;;;;;;;;;;13.70;97.20;;;;;;5121014;28;19950;-66
2023/05/17 08:07:39;;;;;;;;;;;13.80;95.60;;;;;;5120925;28;19912;-66
2023/05/17 08:10:05;;;;;;;;;;;13.90;95.20;;;;;;5121412;28;20407;-65
2023/05/17 08:12:30;;;;;;;;;;;13.90;95.60;;;;;;5120768;28;19911;-65
2023/05/17 08:14:56;;;;;;;;;;;14.00;93.40;;;;;;5120548;28;19923;-65
2023/05/17 08:17:21;;;;;;;;;;;14.10;95.70;;;;;;5121097;28;19908;-65
2023/05/17 08:19:47;;;;;;;;;;;14.10;96.70;;;;;;5120979;28;19908;-65
2023/05/17 08:22:14;;;;;;;;;;;14.30;96.30;;;;;;5120951;28;19908;-65
2023/05/17 08:24:39;;;;;;;;;;;14.30;96.00;;;;;;5120798;28;19916;-65
2023/05/17 08:27:05;;;;;;;;;;;14.40;95.90;;;;;;5120890;28;19915;-65
2023/05/17 08:29:30;;;;;;;;;;;14.50;90.40;;;;;;5120719;28;19915;-65
2023/05/17 08:31:56;;;;;;;;;;;14.50;85.70;;;;;;5120756;28;20418;-65
2023/05/17 08:34:22;;;;;;;;;;;14.60;91.00;;;;;;5120484;28;19975;-66
2023/05/17 08:36:47;;;;;;;;;;;14.60;89.30;;;;;;5120943;28;19914;-65
2023/05/17 08:39:13;;;;;;;;;;;14.70;92.10;;;;;;5119687;28;19908;-66
2023/05/17 08:41:39;;;;;;;;;;;14.80;93.70;;;;;;5120805;28;19937;-65
2023/05/17 08:44:05;;;;;;;;;;;14.90;89.00;;;;;;5120479;28;19908;-65
2023/05/17 08:46:31;;;;;;;;;;;15.00;93.30;;;;;;5120243;28;19912;-65
2023/05/17 08:48:58;;;;;;;;;;;15.10;93.60;;;;;;5120393;28;19908;-66
2023/05/17 08:51:25;;;;;;;;;;;15.20;90.90;;;;;;5119976;28;19908;-65
2023/05/17 08:53:50;;;;;;;;;;;15.30;87.80;;;;;;5120360;28;19911;-66
2023/05/17 08:56:20;;;;;;;;;;;15.40;92.70;;;;;;5120124;28;20022;-66
2023/05/17 08:58:47;;;;;;;;;;;15.50;92.60;;;;;;5120903;28;19907;-65
2023/05/17 09:01:13;;;;;;;;;;;15.50;88.60;;;;;;5120043;28;19954;-66
2023/05/17 09:03:40;;;;;;;;;;;15.60;78.60;;;;;;5120008;28;19916;-66
2023/05/17 09:06:06;;;;;;;;;;;15.60;90.80;;;;;;5119845;28;19918;-65
2023/05/17 09:08:31;;;;;;;;;;;15.70;88.10;;;;;;5119909;28;20261;-66
2023/05/17 09:11:00;;;;;;;;;;;15.80;85.90;;;;;;5119987;28;19908;-66
2023/05/17 09:13:25;;;;;;;;;;;15.80;81.20;;;;;;5120228;28;19908;-66
2023/05/17 09:15:52;;;;;;;;;;;16.00;87.60;;;;;;5119705;28;20010;-65
2023/05/17 09:18:18;;;;;;;;;;;16.10;91.80;;;;;;5119820;28;19915;-65
2023/05/17 09:20:50;;;;;;;;;;;16.30;77.80;;;;;;5119390;28;19908;-65
2023/05/17 09:23:18;;;;;;;;;;;16.40;76.60;;;;;;5119107;28;19908;-66
2023/05/17 09:25:47;;;;;;;;;;;16.50;85.10;;;;;;5119562;28;20056;-66
2023/05/17 09:28:13;;;;;;;;;;;16.60;80.50;;;;;;5120316;28;19908;-65
2023/05/17 09:30:40;;;;;;;;;;;16.80;71.80;;;;;;5120028;28;19912;-65
2023/05/17 09:33:10;;;;;;;;;;;16.90;76.40;;;;;;5119658;28;19945;-66
2023/05/17 09:35:36;;;;;;;;;;;17.10;81.90;;;;;;5120474;28;19957;-66
2023/05/17 09:38:06;;;;;;;;;;;17.30;79.20;;;;;;5119674;28;19908;-66
2023/05/17 09:40:32;;;;;;;;;;;17.50;78.50;;;;;;5119512;28;19908;-65
2023/05/17 09:42:58;;;;;;;;;;;17.70;85.00;;;;;;5119842;28;19915;-66
2023/05/17 09:45:24;;;;;;;;;;;18.00;84.00;;;;;;5119357;28;19965;-66
2023/05/17 09:47:50;;;;;;;;;;;18.20;84.00;;;;;;5119512;28;19908;-66
2023/05/17 09:50:19;;;;;;;;;;;18.30;69.30;;;;;;5119528;28;20414;-66
2023/05/17 09:52:45;;;;;;;;;;;18.50;66.70;;;;;;5119301;28;20279;-66
2023/05/17 09:55:11;;;;;;;;;;;18.90;76.40;;;;;;5119375;28;19912;-66
2023/05/17 09:57:37;;;;;;;;;;;19.40;75.20;;;;;;5119907;28;19908;-66
2023/05/17 10:00:11;;;;;;;;;;;20.20;84.00;;;;;;5119273;28;19915;-66
2023/05/17 10:02:37;;;;;;;;;;;20.70;65.70;;;;;;5119465;28;19915;-66
2023/05/17 10:05:07;;;;;;;;;;;21.10;69.30;;;;;;5119301;28;19964;-66
2023/05/17 10:07:33;;;;;;;;;;;20.90;65.50;;;;;;5119134;28;19908;-66
2023/05/17 10:09:59;;;;;;;;;;;21.00;62.20;;;;;;5119251;28;19919;-66
2023/05/17 10:12:28;;;;;;;;;;;21.50;68.60;;;;;;5119270;28;19914;-66
2023/05/17 10:14:54;;;;;;;;;;;22.40;68.90;;;;;;5118590;28;19920;-66
2023/05/17 10:17:20;;;;;;;;;;;22.90;70.60;;;;;;5118912;28;19915;-66
2023/05/17 10:19:46;;;;;;;;;;;22.60;63.90;;;;;;5119113;28;19953;-66
2023/05/17 10:22:15;;;;;;;;;;;23.30;67.40;;;;;;5118922;28;20415;-66
2023/05/17 10:24:42;;;;;;;;;;;23.70;57.00;;;;;;5118691;28;20433;-66
2023/05/17 10:27:08;;;;;;;;;;;23.80;60.00;;;;;;5119098;28;19907;-66
2023/05/17 10:29:35;;;;;;;;;;;24.90;67.30;;;;;;5118787;28;19915;-66
2023/05/17 10:32:06;;;;;;;;;;;26.20;61.10;;;;;;5118834;28;19908;-66
2023/05/17 10:34:33;;;;;;;;;;;26.20;52.30;;;;;;5118679;28;19973;-66
2023/05/17 10:36:59;;;;;;;;;;;24.90;48.20;;;;;;5119038;28;19908;-66
2023/05/17 10:39:24;;;;;;;;;;;25.10;55.20;;;;;;5118882;28;19915;-66
2023/05/17 10:41:52;;;;;;;;;;;26.30;58.30;;;;;;5118819;28;20346;-66
2023/05/17 10:44:17;;;;;;;;;;;26.90;57.30;;;;;;5118846;28;19947;-66
2023/05/17 10:46:50;;;;;;;;;;;27.50;52.90;;;;;;5118817;28;19915;-66
2023/05/17 10:49:16;;;;;;;;;;;26.20;44.50;;;;;;5118848;28;19908;-66
2023/05/17 10:51:44;;;;;;;;;;;25.50;45.90;;;;;;5118758;28;20270;-66
2023/05/17 10:54:11;;;;;;;;;;;24.20;43.60;;;;;;5118825;28;19908;-66
2023/05/17 10:56:40;;;;;;;;;;;23.70;44.40;;;;;;5118449;28;19991;-66
2023/05/17 10:59:23;;;;;;;;;;;23.10;45.30;;;;;;5118584;28;19951;-66
2023/05/17 11:01:53;;;;;;;;;;;22.60;45.70;;;;;;5119038;28;19915;-66
2023/05/17 11:04:20;;;;;;;;;;;22.20;46.00;;;;;;5122748;28;20475;-66
2023/05/17 11:06:45;;;;;;;;;;;21.90;46.30;;;;;;5122794;28;19908;-66
2023/05/17 11:09:17;;;;;;;;;;;21.60;46.90;;;;;;5122635;28;20339;-66
2023/05/17 11:12:02;;;;;;;;;;;21.30;48.10;;;;;;5122705;28;19907;-66
2023/05/17 11:14:41;;;;;;;;;;;21.30;49.00;;;;;;5122416;28;19912;-66
2023/05/17 11:17:19;;;;;;;;;;;21.30;49.70;;;;;;5122488;28;19919;-66
2023/05/17 11:19:55;;;;;;;;;;;21.60;55.70;;;;;;5122118;28;19931;-67
2023/05/17 11:22:24;;;;;;;;;;;22.30;50.60;;;;;;5122495;28;20359;-61
2023/05/17 11:24:52;;;;;;;;;;;23.70;55.70;;;;;;5121980;28;20355;-61
2023/05/17 11:27:18;;;;;;;;;;;25.00;50.40;;;;;;5122148;28;19908;-61
2023/05/17 11:29:47;;;;;;;;;;;25.10;43.90;;;;;;5122241;28;19915;-61
2023/05/17 11:32:12;;;;;;;;;;;25.00;44.40;;;;;;5122412;28;19908;-61
2023/05/17 11:34:38;;;;;;;;;;;25.20;48.00;;;;;;5122107;28;19908;-61
2023/05/17 11:37:09;;;;;;;;;;;26.50;47.40;;;;;;5122042;28;19908;-61
2023/05/17 11:39:34;;;;;;;;;;;26.60;46.20;;;;;;5122115;28;19943;-61
2023/05/17 11:42:00;;;;;;;;;;;26.30;40.50;;;;;;5121938;28;19908;-61
2023/05/17 11:44:30;;;;;;;;;;;25.60;39.80;;;;;;5122306;28;20344;-61
2023/05/17 11:47:03;;;;;;;;;;;25.00;39.90;;;;;;5122041;28;19942;-60
2023/05/17 11:49:29;;;;;;;;;;;24.40;40.00;;;;;;5122110;28;19930;-61
2023/05/17 11:51:55;;;;;;;;;;;24.50;43.20;;;;;;5121673;28;19951;-61
2023/05/17 11:54:22;;;;;;;;;;;25.40;42.10;;;;;;5103889;28;19915;-61
2023/05/17 11:56:48;;;;;;;;;;;26.40;47.20;;;;;;5121833;28;19907;-61
2023/05/17 11:59:20;;;;;;;;;;;27.50;45.50;;;;;;5121938;28;19908;-61
2023/05/17 12:01:47;;;;;;;;;;;28.10;42.60;;;;;;5120928;28;19908;-61
2023/05/17 12:04:13;;;;;;;;;;;27.70;37.60;;;;;;5121089;28;20402;-61
2023/05/17 12:06:39;;;;;;;;;;;26.90;37.80;;;;;;5121054;28;20374;-61
2023/05/17 12:09:09;;;;;;;;;;;26.80;39.00;;;;;;5121539;28;20026;-61
2023/05/17 12:11:36;;;;;;;;;;;26.70;39.50;;;;;;5120977;28;19907;-61
2023/05/17 12:14:01;;;;;;;;;;;26.90;37.90;;;;;;5119655;28;19985;-61
2023/05/17 12:16:28;;;;;;;;;;;26.80;38.90;;;;;;5120648;28;20374;-61
2023/05/17 12:18:55;;;;;;;;;;;26.60;41.10;;;;;;5120302;28;19914;-61
2023/05/17 12:21:21;;;;;;;;;;;27.40;39.90;;;;;;5120533;28;19908;-61
2023/05/17 12:23:49;;;;;;;;;;;27.60;38.90;;;;;;5120447;28;19908;-61
2023/05/17 12:26:16;;;;;;;;;;;28.00;41.00;;;;;;5120675;28;19967;-61
2023/05/17 12:28:44;;;;;;;;;;;28.40;42.60;;;;;;5120467;28;19953;-61
2023/05/17 12:31:15;;;;;;;;;;;27.80;38.90;;;;;;5120259;28;20335;-61
2023/05/17 12:33:42;;;;;;;;;;;27.50;37.30;;;;;;5120667;28;19962;-61
2023/05/17 12:36:09;;;;;;;;;;;27.00;37.10;;;;;;5120602;28;19914;-61
2023/05/17 12:38:35;;;;;;;;;;;27.00;38.40;;;;;;5120754;28;19947;-61
2023/05/17 12:41:01;;;;;;;;;;;26.60;38.30;;;;;;5120811;28;19931;-61
2023/05/17 12:43:28;;;;;;;;;;;26.50;36.30;;;;;;5120684;28;19911;-61
2023/05/17 12:45:55;;;;;;;;;;;26.90;38.30;;;;;;5120327;28;19912;-61
2023/05/17 12:48:25;;;;;;;;;;;26.60;35.70;;;;;;5120294;28;19908;-61
2023/05/17 12:50:51;;;;;;;;;;;25.50;36.10;;;;;;5120307;28;19915;-61
2023/05/17 12:53:16;;;;;;;;;;;25.60;37.80;;;;;;5120176;28;19908;-61
2023/05/17 12:55:42;;;;;;;;;;;25.20;36.70;;;;;;5118330;28;19915;-61
2023/05/17 12:58:07;;;;;;;;;;;25.00;37.00;;;;;;5118859;28;20369;-61
2023/05/17 13:00:33;;;;;;;;;;;25.20;39.80;;;;;;5120108;28;19908;-61
2023/05/17 13:02:59;;;;;;;;;;;24.80;36.90;;;;;;5119711;28;19915;-61
2023/05/17 13:05:25;;;;;;;;;;;24.50;37.60;;;;;;5120290;28;19918;-60
2023/05/17 13:07:50;;;;;;;;;;;24.00;37.20;;;;;;5119632;28;19908;-61
2023/05/17 13:10:26;;;;;;;;;;;23.70;37.30;;;;;;5118245;28;20036;-61
2023/05/17 13:12:55;;;;;;;;;;;23.20;37.80;;;;;;5119434;28;19943;-61
2023/05/17 13:15:25;;;;;;;;;;;22.90;38.10;;;;;;5109042;28;19924;-61
2023/05/17 13:17:50;;;;;;;;;;;22.60;38.40;;;;;;5117919;28;19915;-61
2023/05/17 13:20:17;;;;;;;;;;;22.60;39.20;;;;;;5117634;28;19908;-61
2023/05/17 13:22:46;;;;;;;;;;;22.60;39.80;;;;;;5118887;28;19923;-61
2023/05/17 13:25:12;;;;;;;;;;;22.50;40.10;;;;;;5118865;28;19912;-61
2023/05/17 13:27:37;;;;;;;;;;;22.60;40.20;;;;;;5118561;28;19911;-61
2023/05/17 13:30:03;;;;;;;;;;;22.60;40.80;;;;;;5118295;28;19915;-61
2023/05/17 13:32:29;;;;;;;;;;;22.70;40.30;;;;;;5119104;28;19980;-61
2023/05/17 13:34:55;;;;;;;;;;;22.60;40.90;;;;;;5119655;28;19908;-61
2023/05/17 13:37:21;;;;;;;;;;;22.70;40.70;;;;;;5118547;28;20029;-61
2023/05/17 13:39:47;;;;;;;;;;;22.90;41.60;;;;;;5119123;28;19947;-61
2023/05/17 13:42:12;;;;;;;;;;;23.10;40.40;;;;;;5119131;28;19908;-61
2023/05/17 13:44:38;;;;;;;;;;;23.30;40.50;;;;;;5119285;28;19917;-60
2023/05/17 13:47:04;;;;;;;;;;;23.10;39.40;;;;;;5118469;28;19951;-61
2023/05/17 13:49:30;;;;;;;;;;;22.90;39.80;;;;;;5117735;28;19939;-61
2023/05/17 13:51:56;;;;;;;;;;;23.00;40.80;;;;;;5115577;27;19908;-60
2023/05/17 13:54:22;;;;;;;;;;;23.00;40.00;;;;;;5117150;28;20371;-61
2023/05/17 13:56:47;;;;;;;;;;;23.20;40.60;;;;;;5112395;28;21050;-61
2023/05/17 13:59:13;;;;;;;;;;;23.10;40.60;;;;;;5111447;28;19915;-61
2023/05/17 14:01:39;;;;;;;;;;;22.90;41.60;;;;;;5118117;28;20374;-61
2023/05/17 14:04:05;;;;;;;;;;;23.10;41.60;;;;;;5118185;28;20371;-61
2023/05/17 14:06:31;;;;;;;;;;;23.30;41.00;;;;;;5118333;28;19970;-61
2023/05/17 14:08:58;;;;;;;;;;;22.70;39.00;;;;;;5118614;28;19958;-60
2023/05/17 14:11:23;;;;;;;;;;;22.80;41.40;;;;;;5109148;28;19912;-61
2023/05/17 14:13:49;;;;;;;;;;;23.10;41.50;;;;;;5116596;28;19922;-61
2023/05/17 14:16:15;;;;;;;;;;;23.20;41.30;;;;;;5115948;28;20383;-61